sensor_id;sensor_type;location;lat;lon;timestamp;temperature;humidity
7077;DHT22;3579;48.956;9.154;2022-07-17T00:00:13;27.60;43.40
7077;DHT22;3579;48.956;9.154;2022-07-17T00:02:39;27.50;43.40
7077;DHT22;3579;48.956;9.154;2022-07-17T00:05:06;27.60;43.50
7077;DHT22;3579;48.956;9.154;2022-07-17T00:07:32;27.60;43.50
7077;DHT22;3579;48.956;9.154;2022-07-17T00:09:58;27.60;43.50
7077;DHT22;3579;48.956;9.154;2022-07-17T00:12:24;27.60;43.50
7077;DHT22;3579;48.956;9.154;2022-07-17T00:14:50;27.60;43.50
7077;DHT22;3579;48.956;9.154;2022-07-17T00:17:16;27.50;43.40
7077;DHT22;3579;48.956;9.154;2022-07-17T00:19:42;27.50;43.50
7077;DHT22;3579;48.956;9.154;2022-07-17T00:22:09;27.50;43.50
7077;DHT22;3579;48.956;9.154;2022-07-17T00:24:35;27.50;43.50
7077;DHT22;3579;48.956;9.154;2022-07-17T00:27:00;27.50;43.50
7077;DHT22;3579;48.956;9.154;2022-07-17T00:29:26;27.50;43.60
7077;DHT22;3579;48.956;9.154;2022-07-17T00:31:52;27.50;43.60
7077;DHT22;3579;48.956;9.154;2022-07-17T00:34:18;27.40;43.60
7077;DHT22;3579;48.956;9.154;2022-07-17T00:36:44;27.40;43.60
7077;DHT22;3579;48.956;9.154;2022-07-17T00:39:10;27.40;43.60
7077;DHT22;3579;48.956;9.154;2022-07-17T00:41:36;27.40;43.60
7077;DHT22;3579;48.956;9.154;2022-07-17T00:44:04;27.40;43.60
7077;DHT22;3579;48.956;9.154;2022-07-17T00:46:31;27.40;43.70
7077;DHT22;3579;48.956;9.154;2022-07-17T00:48:56;27.40;43.70
7077;DHT22;3579;48.956;9.154;2022-07-17T00:51:22;27.40;43.70
7077;DHT22;3579;48.956;9.154;2022-07-17T00:53:49;27.40;43.70
7077;DHT22;3579;48.956;9.154;2022-07-17T00:56:17;27.40;43.70
7077;DHT22;3579;48.956;9.154;2022-07-17T00:58:44;27.30;43.70
7077;DHT22;3579;48.956;9.154;2022-07-17T01:01:10;27.30;43.70
7077;DHT22;3579;48.956;9.154;2022-07-17T01:03:36;27.30;43.70
7077;DHT22;3579;48.956;9.154;2022-07-17T01:06:03;27.30;43.70
7077;DHT22;3579;48.956;9.154;2022-07-17T01:08:29;27.30;43.70
7077;DHT22;3579;48.956;9.154;2022-07-17T01:10:55;27.30;43.70
7077;DHT22;3579;48.956;9.154;2022-07-17T01:13:21;27.30;43.80
7077;DHT22;3579;48.956;9.154;2022-07-17T01:15:47;27.30;43.90
7077;DHT22;3579;48.956;9.154;2022-07-17T01:18:14;27.30;43.90
7077;DHT22;3579;48.956;9.154;2022-07-17T01:20:43;27.20;43.80
7077;DHT22;3579;48.956;9.154;2022-07-17T01:23:09;27.30;43.90
7077;DHT22;3579;48.956;9.154;2022-07-17T01:25:36;27.20;43.80
7077;DHT22;3579;48.956;9.154;2022-07-17T01:28:03;27.20;43.90
7077;DHT22;3579;48.956;9.154;2022-07-17T01:30:29;27.20;43.90
7077;DHT22;3579;48.956;9.154;2022-07-17T01:32:55;27.20;43.90
7077;DHT22;3579;48.956;9.154;2022-07-17T01:35:21;27.20;44.00
7077;DHT22;3579;48.956;9.154;2022-07-17T01:37:47;27.20;44.00
7077;DHT22;3579;48.956;9.154;2022-07-17T01:40:15;27.20;43.90
7077;DHT22;3579;48.956;9.154;2022-07-17T01:42:46;27.20;44.00
7077;DHT22;3579;48.956;9.154;2022-07-17T01:45:13;27.20;44.30
7077;DHT22;3579;48.956;9.154;2022-07-17T01:47:40;27.20;44.10
7077;DHT22;3579;48.956;9.154;2022-07-17T01:50:07;27.20;44.00
7077;DHT22;3579;48.956;9.154;2022-07-17T01:52:36;27.20;44.10
7077;DHT22;3579;48.956;9.154;2022-07-17T01:55:05;27.10;44.00
7077;DHT22;3579;48.956;9.154;2022-07-17T01:57:31;27.20;44.10
7077;DHT22;3579;48.956;9.154;2022-07-17T01:59:57;27.10;44.10
7077;DHT22;3579;48.956;9.154;2022-07-17T02:02:23;27.10;44.10
7077;DHT22;3579;48.956;9.154;2022-07-17T02:04:49;27.10;44.10
7077;DHT22;3579;48.956;9.154;2022-07-17T02:07:15;27.10;44.20
7077;DHT22;3579;48.956;9.154;2022-07-17T02:09:41;27.10;44.10
7077;DHT22;3579;48.956;9.154;2022-07-17T02:12:07;27.10;44.10
7077;DHT22;3579;48.956;9.154;2022-07-17T02:14:34;27.10;44.20
7077;DHT22;3579;48.956;9.154;2022-07-17T02:17:00;27.10;44.20
7077;DHT22;3579;48.956;9.154;2022-07-17T02:19:26;27.00;44.20
7077;DHT22;3579;48.956;9.154;2022-07-17T02:21:53;27.10;44.20
7077;DHT22;3579;48.956;9.154;2022-07-17T02:24:19;27.00;44.20
7077;DHT22;3579;48.956;9.154;2022-07-17T02:26:45;27.00;44.20
7077;DHT22;3579;48.956;9.154;2022-07-17T02:29:11;27.00;44.20
7077;DHT22;3579;48.956;9.154;2022-07-17T02:31:37;27.00;44.20
7077;DHT22;3579;48.956;9.154;2022-07-17T02:34:03;27.00;44.30
7077;DHT22;3579;48.956;9.154;2022-07-17T02:36:29;27.00;44.30
7077;DHT22;3579;48.956;9.154;2022-07-17T02:38:55;27.00;44.30
7077;DHT22;3579;48.956;9.154;2022-07-17T02:41:21;27.00;44.30
7077;DHT22;3579;48.956;9.154;2022-07-17T02:43:47;27.00;44.30
7077;DHT22;3579;48.956;9.154;2022-07-17T02:46:13;26.90;44.30
7077;DHT22;3579;48.956;9.154;2022-07-17T02:48:40;26.90;44.30
7077;DHT22;3579;48.956;9.154;2022-07-17T02:51:07;26.90;44.30
7077;DHT22;3579;48.956;9.154;2022-07-17T02:53:33;26.90;44.30
7077;DHT22;3579;48.956;9.154;2022-07-17T02:55:59;26.90;44.30
7077;DHT22;3579;48.956;9.154;2022-07-17T02:58:25;26.90;44.30
7077;DHT22;3579;48.956;9.154;2022-07-17T03:00:51;26.90;44.30
7077;DHT22;3579;48.956;9.154;2022-07-17T03:03:17;26.90;44.30
7077;DHT22;3579;48.956;9.154;2022-07-17T03:05:47;26.90;44.30
7077;DHT22;3579;48.956;9.154;2022-07-17T03:08:13;26.90;44.40
7077;DHT22;3579;48.956;9.154;2022-07-17T03:10:40;26.80;44.40
7077;DHT22;3579;48.956;9.154;2022-07-17T03:13:06;26.80;44.40
7077;DHT22;3579;48.956;9.154;2022-07-17T03:15:32;26.80;44.30
7077;DHT22;3579;48.956;9.154;2022-07-17T03:17:58;26.80;45.00
7077;DHT22;3579;48.956;9.154;2022-07-17T03:20:24;26.80;44.50
7077;DHT22;3579;48.956;9.154;2022-07-17T03:22:50;26.80;44.40
7077;DHT22;3579;48.956;9.154;2022-07-17T03:25:16;26.80;44.40
7077;DHT22;3579;48.956;9.154;2022-07-17T03:27:42;26.80;44.40
7077;DHT22;3579;48.956;9.154;2022-07-17T03:30:08;26.80;44.50
7077;DHT22;3579;48.956;9.154;2022-07-17T03:32:34;26.70;44.50
7077;DHT22;3579;48.956;9.154;2022-07-17T03:35:00;26.80;44.50
7077;DHT22;3579;48.956;9.154;2022-07-17T03:37:27;26.70;44.50
7077;DHT22;3579;48.956;9.154;2022-07-17T03:39:54;26.70;44.50
7077;DHT22;3579;48.956;9.154;2022-07-17T03:42:20;26.70;44.50
7077;DHT22;3579;48.956;9.154;2022-07-17T03:44:46;26.70;44.50
7077;DHT22;3579;48.956;9.154;2022-07-17T03:47:12;26.70;44.50
7077;DHT22;3579;48.956;9.154;2022-07-17T03:49:39;26.70;44.50
7077;DHT22;3579;48.956;9.154;2022-07-17T03:52:05;26.70;44.50
7077;DHT22;3579;48.956;9.154;2022-07-17T03:54:31;26.70;44.60
7077;DHT22;3579;48.956;9.154;2022-07-17T03:56:57;26.70;44.50
7077;DHT22;3579;48.956;9.154;2022-07-17T03:59:23;26.70;44.50
7077;DHT22;3579;48.956;9.154;2022-07-17T04:01:50;26.80;45.10
7077;DHT22;3579;48.956;9.154;2022-07-17T04:04:16;26.80;44.40
7077;DHT22;3579;48.956;9.154;2022-07-17T04:06:41;26.80;44.30
7077;DHT22;3579;48.956;9.154;2022-07-17T04:09:07;26.90;44.30
7077;DHT22;3579;48.956;9.154;2022-07-17T04:11:33;26.90;44.20
7077;DHT22;3579;48.956;9.154;2022-07-17T04:13:59;26.90;44.20
7077;DHT22;3579;48.956;9.154;2022-07-17T04:16:25;27.00;44.20
7077;DHT22;3579;48.956;9.154;2022-07-17T04:18:51;27.00;44.10
7077;DHT22;3579;48.956;9.154;2022-07-17T04:21:17;27.00;44.00
7077;DHT22;3579;48.956;9.154;2022-07-17T04:23:43;27.10;44.50
7077;DHT22;3579;48.956;9.154;2022-07-17T04:26:09;27.10;43.90
7077;DHT22;3579;48.956;9.154;2022-07-17T04:28:35;27.20;43.80
7077;DHT22;3579;48.956;9.154;2022-07-17T04:31:02;27.20;43.70
7077;DHT22;3579;48.956;9.154;2022-07-17T04:33:28;27.20;43.70
7077;DHT22;3579;48.956;9.154;2022-07-17T04:35:54;27.30;43.70
7077;DHT22;3579;48.956;9.154;2022-07-17T04:38:20;27.30;43.60
7077;DHT22;3579;48.956;9.154;2022-07-17T04:40:46;27.30;44.10
7077;DHT22;3579;48.956;9.154;2022-07-17T04:43:12;27.30;43.50
7077;DHT22;3579;48.956;9.154;2022-07-17T04:45:38;27.30;43.50
7077;DHT22;3579;48.956;9.154;2022-07-17T04:48:04;27.30;43.60
7077;DHT22;3579;48.956;9.154;2022-07-17T04:50:30;27.30;43.60
7077;DHT22;3579;48.956;9.154;2022-07-17T04:52:57;27.30;43.60
7077;DHT22;3579;48.956;9.154;2022-07-17T04:55:23;27.30;43.60
7077;DHT22;3579;48.956;9.154;2022-07-17T04:57:49;27.30;43.60
7077;DHT22;3579;48.956;9.154;2022-07-17T05:00:15;27.30;43.60
7077;DHT22;3579;48.956;9.154;2022-07-17T05:02:42;27.30;43.50
7077;DHT22;3579;48.956;9.154;2022-07-17T05:05:08;27.40;43.60
7077;DHT22;3579;48.956;9.154;2022-07-17T05:07:34;27.40;43.50
7077;DHT22;3579;48.956;9.154;2022-07-17T05:10:01;27.40;43.40
7077;DHT22;3579;48.956;9.154;2022-07-17T05:12:27;27.40;43.40
7077;DHT22;3579;48.956;9.154;2022-07-17T05:14:53;27.50;43.40
7077;DHT22;3579;48.956;9.154;2022-07-17T05:17:19;27.50;43.30
7077;DHT22;3579;48.956;9.154;2022-07-17T05:19:45;27.50;43.20
7077;DHT22;3579;48.956;9.154;2022-07-17T05:22:11;27.60;43.30
7077;DHT22;3579;48.956;9.154;2022-07-17T05:24:37;27.60;43.20
7077;DHT22;3579;48.956;9.154;2022-07-17T05:27:03;27.60;43.10
7077;DHT22;3579;48.956;9.154;2022-07-17T05:29:29;27.70;43.10
7077;DHT22;3579;48.956;9.154;2022-07-17T05:31:55;27.70;43.00
7077;DHT22;3579;48.956;9.154;2022-07-17T05:34:21;27.70;43.00
7077;DHT22;3579;48.956;9.154;2022-07-17T05:36:47;27.70;42.90
7077;DHT22;3579;48.956;9.154;2022-07-17T05:39:14;27.80;42.90
7077;DHT22;3579;48.956;9.154;2022-07-17T05:41:40;27.80;42.80
7077;DHT22;3579;48.956;9.154;2022-07-17T05:44:06;27.80;42.80
7077;DHT22;3579;48.956;9.154;2022-07-17T05:46:33;27.80;42.70
7077;DHT22;3579;48.956;9.154;2022-07-17T05:49:00;27.90;42.70
7077;DHT22;3579;48.956;9.154;2022-07-17T05:51:26;27.90;42.70
7077;DHT22;3579;48.956;9.154;2022-07-17T05:53:51;27.90;43.20
7077;DHT22;3579;48.956;9.154;2022-07-17T05:56:17;27.90;42.60
7077;DHT22;3579;48.956;9.154;2022-07-17T05:58:43;27.90;42.70
7077;DHT22;3579;48.956;9.154;2022-07-17T06:01:09;28.00;42.70
7077;DHT22;3579;48.956;9.154;2022-07-17T06:03:35;27.90;42.60
7077;DHT22;3579;48.956;9.154;2022-07-17T06:06:01;28.00;42.70
7077;DHT22;3579;48.956;9.154;2022-07-17T06:08:27;28.00;42.70
7077;DHT22;3579;48.956;9.154;2022-07-17T06:10:53;28.00;43.20
7077;DHT22;3579;48.956;9.154;2022-07-17T06:13:19;28.00;42.60
7077;DHT22;3579;48.956;9.154;2022-07-17T06:15:45;28.00;42.60
7077;DHT22;3579;48.956;9.154;2022-07-17T06:18:11;28.00;42.60
7077;DHT22;3579;48.956;9.154;2022-07-17T06:20:37;28.00;42.70
7077;DHT22;3579;48.956;9.154;2022-07-17T06:23:03;28.00;42.60
7077;DHT22;3579;48.956;9.154;2022-07-17T06:25:29;28.00;42.60
7077;DHT22;3579;48.956;9.154;2022-07-17T06:27:55;28.10;42.70
7077;DHT22;3579;48.956;9.154;2022-07-17T06:30:21;28.10;42.70
7077;DHT22;3579;48.956;9.154;2022-07-17T06:32:46;28.10;42.60
7077;DHT22;3579;48.956;9.154;2022-07-17T06:35:13;28.10;42.70
7077;DHT22;3579;48.956;9.154;2022-07-17T06:37:39;28.10;42.70
7077;DHT22;3579;48.956;9.154;2022-07-17T06:40:05;28.10;42.70
7077;DHT22;3579;48.956;9.154;2022-07-17T06:42:31;28.10;42.70
7077;DHT22;3579;48.956;9.154;2022-07-17T06:44:57;28.10;42.80
7077;DHT22;3579;48.956;9.154;2022-07-17T06:47:23;28.10;42.70
7077;DHT22;3579;48.956;9.154;2022-07-17T06:49:49;28.10;42.70
7077;DHT22;3579;48.956;9.154;2022-07-17T06:52:15;28.10;42.70
7077;DHT22;3579;48.956;9.154;2022-07-17T06:54:41;28.10;42.70
7077;DHT22;3579;48.956;9.154;2022-07-17T06:57:07;28.10;42.70
7077;DHT22;3579;48.956;9.154;2022-07-17T06:59:33;28.10;43.00
7077;DHT22;3579;48.956;9.154;2022-07-17T07:02:00;28.10;42.70
7077;DHT22;3579;48.956;9.154;2022-07-17T07:04:25;28.10;42.70
7077;DHT22;3579;48.956;9.154;2022-07-17T07:06:51;28.10;42.70
7077;DHT22;3579;48.956;9.154;2022-07-17T07:09:17;28.10;42.80
7077;DHT22;3579;48.956;9.154;2022-07-17T07:11:43;28.10;42.70
7077;DHT22;3579;48.956;9.154;2022-07-17T07:14:10;28.10;42.70
7077;DHT22;3579;48.956;9.154;2022-07-17T07:16:37;28.10;42.70
7077;DHT22;3579;48.956;9.154;2022-07-17T07:19:03;28.10;42.70
7077;DHT22;3579;48.956;9.154;2022-07-17T07:21:29;28.10;42.70
7077;DHT22;3579;48.956;9.154;2022-07-17T07:23:55;28.10;42.70
7077;DHT22;3579;48.956;9.154;2022-07-17T07:26:22;28.20;42.70
7077;DHT22;3579;48.956;9.154;2022-07-17T07:28:48;28.10;42.70
7077;DHT22;3579;48.956;9.154;2022-07-17T07:31:14;28.20;42.70
7077;DHT22;3579;48.956;9.154;2022-07-17T07:33:42;28.20;42.70
7077;DHT22;3579;48.956;9.154;2022-07-17T07:36:09;28.20;42.70
7077;DHT22;3579;48.956;9.154;2022-07-17T07:38:35;28.20;42.70
7077;DHT22;3579;48.956;9.154;2022-07-17T07:41:01;28.20;42.70
7077;DHT22;3579;48.956;9.154;2022-07-17T07:43:27;28.20;42.70
7077;DHT22;3579;48.956;9.154;2022-07-17T07:45:53;28.20;42.70
7077;DHT22;3579;48.956;9.154;2022-07-17T07:48:19;28.20;42.70
7077;DHT22;3579;48.956;9.154;2022-07-17T07:50:45;28.20;42.80
7077;DHT22;3579;48.956;9.154;2022-07-17T07:53:11;28.20;42.70
7077;DHT22;3579;48.956;9.154;2022-07-17T07:55:37;28.20;42.80
7077;DHT22;3579;48.956;9.154;2022-07-17T07:58:05;28.20;42.80
7077;DHT22;3579;48.956;9.154;2022-07-17T08:00:32;28.10;42.80
7077;DHT22;3579;48.956;9.154;2022-07-17T08:02:58;28.10;42.80
7077;DHT22;3579;48.956;9.154;2022-07-17T08:05:24;28.20;42.80
7077;DHT22;3579;48.956;9.154;2022-07-17T08:07:51;28.20;42.80
7077;DHT22;3579;48.956;9.154;2022-07-17T08:10:17;28.20;42.80
7077;DHT22;3579;48.956;9.154;2022-07-17T08:12:43;28.20;42.80
7077;DHT22;3579;48.956;9.154;2022-07-17T08:15:09;28.20;42.80
7077;DHT22;3579;48.956;9.154;2022-07-17T08:17:35;28.20;42.80
7077;DHT22;3579;48.956;9.154;2022-07-17T08:20:02;28.20;42.80
7077;DHT22;3579;48.956;9.154;2022-07-17T08:22:28;28.20;42.80
7077;DHT22;3579;48.956;9.154;2022-07-17T08:24:54;28.20;42.80
7077;DHT22;3579;48.956;9.154;2022-07-17T08:27:19;28.20;42.70
7077;DHT22;3579;48.956;9.154;2022-07-17T08:29:45;28.20;42.80
7077;DHT22;3579;48.956;9.154;2022-07-17T08:32:11;28.20;42.80
7077;DHT22;3579;48.956;9.154;2022-07-17T08:34:37;28.20;42.70
7077;DHT22;3579;48.956;9.154;2022-07-17T08:37:03;28.20;42.70
7077;DHT22;3579;48.956;9.154;2022-07-17T08:39:29;28.20;42.70
7077;DHT22;3579;48.956;9.154;2022-07-17T08:41:55;28.20;42.80
7077;DHT22;3579;48.956;9.154;2022-07-17T08:44:21;28.30;42.80
7077;DHT22;3579;48.956;9.154;2022-07-17T08:46:48;28.30;42.80
7077;DHT22;3579;48.956;9.154;2022-07-17T08:49:15;28.30;42.80
7077;DHT22;3579;48.956;9.154;2022-07-17T08:51:45;28.30;42.70
7077;DHT22;3579;48.956;9.154;2022-07-17T08:54:12;28.30;42.70
7077;DHT22;3579;48.956;9.154;2022-07-17T08:56:38;28.30;42.70
7077;DHT22;3579;48.956;9.154;2022-07-17T08:59:04;28.30;42.70
7077;DHT22;3579;48.956;9.154;2022-07-17T09:01:30;28.30;42.70
7077;DHT22;3579;48.956;9.154;2022-07-17T09:04:04;28.30;42.60
7077;DHT22;3579;48.956;9.154;2022-07-17T09:06:36;28.30;42.60
7077;DHT22;3579;48.956;9.154;2022-07-17T09:09:12;28.30;42.70
7077;DHT22;3579;48.956;9.154;2022-07-17T09:11:45;28.30;42.60
7077;DHT22;3579;48.956;9.154;2022-07-17T09:14:11;28.40;42.70
7077;DHT22;3579;48.956;9.154;2022-07-17T09:16:48;28.40;42.70
7077;DHT22;3579;48.956;9.154;2022-07-17T09:19:28;28.40;42.70
7077;DHT22;3579;48.956;9.154;2022-07-17T09:22:24;28.40;42.60
7077;DHT22;3579;48.956;9.154;2022-07-17T09:24:55;28.40;42.70
7077;DHT22;3579;48.956;9.154;2022-07-17T09:29:55;28.40;42.70
7077;DHT22;3579;48.956;9.154;2022-07-17T09:32:22;28.40;42.70
7077;DHT22;3579;48.956;9.154;2022-07-17T09:34:50;28.40;42.60
7077;DHT22;3579;48.956;9.154;2022-07-17T09:37:17;28.40;42.60
7077;DHT22;3579;48.956;9.154;2022-07-17T09:39:44;28.40;42.60
7077;DHT22;3579;48.956;9.154;2022-07-17T09:42:24;28.40;42.60
7077;DHT22;3579;48.956;9.154;2022-07-17T09:47:27;28.50;42.70
7077;DHT22;3579;48.956;9.154;2022-07-17T09:49:54;28.50;42.60
7077;DHT22;3579;48.956;9.154;2022-07-17T09:52:27;28.50;42.60
7077;DHT22;3579;48.956;9.154;2022-07-17T09:54:56;28.50;42.70
7077;DHT22;3579;48.956;9.154;2022-07-17T09:57:28;28.50;42.70
7077;DHT22;3579;48.956;9.154;2022-07-17T09:59:56;28.50;42.70
7077;DHT22;3579;48.956;9.154;2022-07-17T10:02:23;28.50;42.60
7077;DHT22;3579;48.956;9.154;2022-07-17T10:04:53;28.50;42.70
7077;DHT22;3579;48.956;9.154;2022-07-17T10:07:20;28.50;42.50
7077;DHT22;3579;48.956;9.154;2022-07-17T10:09:47;28.60;42.60
7077;DHT22;3579;48.956;9.154;2022-07-17T10:12:14;28.60;42.60
7077;DHT22;3579;48.956;9.154;2022-07-17T10:14:42;28.60;42.60
7077;DHT22;3579;48.956;9.154;2022-07-17T10:17:13;28.60;42.60
7077;DHT22;3579;48.956;9.154;2022-07-17T10:19:55;28.70;42.60
7077;DHT22;3579;48.956;9.154;2022-07-17T10:22:22;28.60;42.50
7077;DHT22;3579;48.956;9.154;2022-07-17T10:27:26;28.70;42.50
7077;DHT22;3579;48.956;9.154;2022-07-17T10:32:26;28.70;42.70
7077;DHT22;3579;48.956;9.154;2022-07-17T10:34:59;28.70;42.70
7077;DHT22;3579;48.956;9.154;2022-07-17T10:42:57;28.70;42.70
7077;DHT22;3579;48.956;9.154;2022-07-17T10:45:39;28.70;42.70
7077;DHT22;3579;48.956;9.154;2022-07-17T10:48:06;28.60;42.70
7077;DHT22;3579;48.956;9.154;2022-07-17T10:55:57;28.60;42.60
7077;DHT22;3579;48.956;9.154;2022-07-17T10:58:27;28.60;42.70
7077;DHT22;3579;48.956;9.154;2022-07-17T11:03:54;28.70;42.80
7077;DHT22;3579;48.956;9.154;2022-07-17T11:06:25;28.70;42.70
7077;DHT22;3579;48.956;9.154;2022-07-17T11:08:57;28.70;42.80
7077;DHT22;3579;48.956;9.154;2022-07-17T11:11:38;28.70;42.70
7077;DHT22;3579;48.956;9.154;2022-07-17T11:16:59;28.70;42.80
7077;DHT22;3579;48.956;9.154;2022-07-17T11:19:28;28.70;42.80
7077;DHT22;3579;48.956;9.154;2022-07-17T11:21:56;28.70;42.80
7077;DHT22;3579;48.956;9.154;2022-07-17T11:24:34;28.70;42.70
7077;DHT22;3579;48.956;9.154;2022-07-17T11:27:00;28.70;43.30
7077;DHT22;3579;48.956;9.154;2022-07-17T11:29:26;28.70;42.80
7077;DHT22;3579;48.956;9.154;2022-07-17T11:31:58;28.70;42.70
7077;DHT22;3579;48.956;9.154;2022-07-17T11:34:25;28.70;42.70
7077;DHT22;3579;48.956;9.154;2022-07-17T11:37:02;28.70;42.70
7077;DHT22;3579;48.956;9.154;2022-07-17T11:39:45;28.70;42.80
7077;DHT22;3579;48.956;9.154;2022-07-17T11:42:14;28.80;42.80
7077;DHT22;3579;48.956;9.154;2022-07-17T11:44:40;28.80;42.70
7077;DHT22;3579;48.956;9.154;2022-07-17T11:47:07;28.80;42.70
7077;DHT22;3579;48.956;9.154;2022-07-17T11:49:38;28.80;42.80
7077;DHT22;3579;48.956;9.154;2022-07-17T11:52:12;28.80;43.30
7077;DHT22;3579;48.956;9.154;2022-07-17T11:54:51;28.80;42.80
7077;DHT22;3579;48.956;9.154;2022-07-17T11:57:18;28.80;42.80
7077;DHT22;3579;48.956;9.154;2022-07-17T11:59:45;28.80;43.30
7077;DHT22;3579;48.956;9.154;2022-07-17T12:02:15;28.80;42.80
7077;DHT22;3579;48.956;9.154;2022-07-17T12:04:53;28.80;42.80
7077;DHT22;3579;48.956;9.154;2022-07-17T12:07:21;28.80;42.80
7077;DHT22;3579;48.956;9.154;2022-07-17T12:09:47;28.80;42.80
7077;DHT22;3579;48.956;9.154;2022-07-17T12:12:24;28.80;42.70
7077;DHT22;3579;48.956;9.154;2022-07-17T12:14:56;28.90;42.70
7077;DHT22;3579;48.956;9.154;2022-07-17T12:17:24;28.90;42.70
7077;DHT22;3579;48.956;9.154;2022-07-17T12:19:51;28.90;42.70
7077;DHT22;3579;48.956;9.154;2022-07-17T12:22:17;28.80;42.70
7077;DHT22;3579;48.956;9.154;2022-07-17T12:24:45;28.90;42.80
7077;DHT22;3579;48.956;9.154;2022-07-17T12:27:15;28.90;42.70
7077;DHT22;3579;48.956;9.154;2022-07-17T12:29:43;28.90;42.80
7077;DHT22;3579;48.956;9.154;2022-07-17T12:32:14;28.90;42.70
7077;DHT22;3579;48.956;9.154;2022-07-17T12:34:47;28.90;42.70
7077;DHT22;3579;48.956;9.154;2022-07-17T12:37:18;28.90;42.70
7077;DHT22;3579;48.956;9.154;2022-07-17T12:39:46;28.90;42.70
7077;DHT22;3579;48.956;9.154;2022-07-17T12:42:16;28.90;42.70
7077;DHT22;3579;48.956;9.154;2022-07-17T12:44:43;28.90;42.70
7077;DHT22;3579;48.956;9.154;2022-07-17T12:47:09;28.90;42.70
7077;DHT22;3579;48.956;9.154;2022-07-17T12:49:35;28.90;42.70
7077;DHT22;3579;48.956;9.154;2022-07-17T12:52:01;28.90;42.70
7077;DHT22;3579;48.956;9.154;2022-07-17T12:54:27;28.90;42.70
7077;DHT22;3579;48.956;9.154;2022-07-17T12:56:53;28.90;42.70
7077;DHT22;3579;48.956;9.154;2022-07-17T12:59:19;28.90;42.70
7077;DHT22;3579;48.956;9.154;2022-07-17T13:01:47;29.00;42.80
7077;DHT22;3579;48.956;9.154;2022-07-17T13:04:13;29.00;42.70
7077;DHT22;3579;48.956;9.154;2022-07-17T13:06:39;29.00;42.70
7077;DHT22;3579;48.956;9.154;2022-07-17T13:09:06;29.00;42.80
7077;DHT22;3579;48.956;9.154;2022-07-17T13:11:32;29.00;42.70
7077;DHT22;3579;48.956;9.154;2022-07-17T13:13:57;29.00;42.70
7077;DHT22;3579;48.956;9.154;2022-07-17T13:16:24;29.00;42.80
7077;DHT22;3579;48.956;9.154;2022-07-17T13:18:51;29.00;42.80
7077;DHT22;3579;48.956;9.154;2022-07-17T13:21:17;29.00;42.80
7077;DHT22;3579;48.956;9.154;2022-07-17T13:23:42;29.00;42.80
7077;DHT22;3579;48.956;9.154;2022-07-17T13:26:09;29.00;42.80
7077;DHT22;3579;48.956;9.154;2022-07-17T13:28:35;29.00;42.70
7077;DHT22;3579;48.956;9.154;2022-07-17T13:31:00;29.00;42.80
7077;DHT22;3579;48.956;9.154;2022-07-17T13:33:27;29.00;42.80
7077;DHT22;3579;48.956;9.154;2022-07-17T13:35:53;29.10;42.80
7077;DHT22;3579;48.956;9.154;2022-07-17T13:38:21;29.10;42.80
7077;DHT22;3579;48.956;9.154;2022-07-17T13:40:47;29.00;42.70
7077;DHT22;3579;48.956;9.154;2022-07-17T13:43:13;29.10;42.80
7077;DHT22;3579;48.956;9.154;2022-07-17T13:45:39;29.10;42.80
7077;DHT22;3579;48.956;9.154;2022-07-17T13:48:05;29.00;42.70
7077;DHT22;3579;48.956;9.154;2022-07-17T13:50:31;29.10;42.80
7077;DHT22;3579;48.956;9.154;2022-07-17T13:52:57;29.10;42.80
7077;DHT22;3579;48.956;9.154;2022-07-17T13:55:23;29.00;42.70
7077;DHT22;3579;48.956;9.154;2022-07-17T13:57:49;29.10;42.80
7077;DHT22;3579;48.956;9.154;2022-07-17T14:00:15;29.10;42.80
7077;DHT22;3579;48.956;9.154;2022-07-17T14:02:43;29.10;42.70
7077;DHT22;3579;48.956;9.154;2022-07-17T14:05:09;29.10;42.80
7077;DHT22;3579;48.956;9.154;2022-07-17T14:07:36;29.10;42.70
7077;DHT22;3579;48.956;9.154;2022-07-17T14:10:03;29.10;42.70
7077;DHT22;3579;48.956;9.154;2022-07-17T14:12:29;29.10;42.70
7077;DHT22;3579;48.956;9.154;2022-07-17T14:14:55;29.10;42.70
7077;DHT22;3579;48.956;9.154;2022-07-17T14:17:21;29.10;42.70
7077;DHT22;3579;48.956;9.154;2022-07-17T14:19:47;29.10;42.70
7077;DHT22;3579;48.956;9.154;2022-07-17T14:22:13;29.10;42.80
7077;DHT22;3579;48.956;9.154;2022-07-17T14:24:39;29.20;42.70
7077;DHT22;3579;48.956;9.154;2022-07-17T14:27:05;29.10;42.70
7077;DHT22;3579;48.956;9.154;2022-07-17T14:29:31;29.20;42.70
7077;DHT22;3579;48.956;9.154;2022-07-17T14:31:57;29.20;42.70
7077;DHT22;3579;48.956;9.154;2022-07-17T14:34:23;29.20;42.70
7077;DHT22;3579;48.956;9.154;2022-07-17T14:36:48;29.20;42.70
7077;DHT22;3579;48.956;9.154;2022-07-17T14:39:15;29.20;42.70
7077;DHT22;3579;48.956;9.154;2022-07-17T14:41:41;29.20;42.70
7077;DHT22;3579;48.956;9.154;2022-07-17T14:44:08;29.20;42.70
7077;DHT22;3579;48.956;9.154;2022-07-17T14:46:34;29.20;42.70
7077;DHT22;3579;48.956;9.154;2022-07-17T14:49:00;29.20;42.70
7077;DHT22;3579;48.956;9.154;2022-07-17T14:51:26;29.20;42.70
7077;DHT22;3579;48.956;9.154;2022-07-17T14:53:52;29.20;42.70
7077;DHT22;3579;48.956;9.154;2022-07-17T14:56:19;29.20;42.70
7077;DHT22;3579;48.956;9.154;2022-07-17T14:58:45;29.20;42.70
7077;DHT22;3579;48.956;9.154;2022-07-17T15:01:11;29.20;42.70
7077;DHT22;3579;48.956;9.154;2022-07-17T15:03:37;29.20;42.70
7077;DHT22;3579;48.956;9.154;2022-07-17T15:06:03;29.20;42.70
7077;DHT22;3579;48.956;9.154;2022-07-17T15:08:29;29.20;42.70
7077;DHT22;3579;48.956;9.154;2022-07-17T15:10:56;29.30;42.70
7077;DHT22;3579;48.956;9.154;2022-07-17T15:13:23;29.20;42.70
7077;DHT22;3579;48.956;9.154;2022-07-17T15:15:48;29.20;42.70
7077;DHT22;3579;48.956;9.154;2022-07-17T15:18:14;29.20;42.70
7077;DHT22;3579;48.956;9.154;2022-07-17T15:20:40;29.30;42.70
7077;DHT22;3579;48.956;9.154;2022-07-17T15:23:07;29.30;42.70
7077;DHT22;3579;48.956;9.154;2022-07-17T15:25:32;29.30;42.60
7077;DHT22;3579;48.956;9.154;2022-07-17T15:27:58;29.30;42.60
7077;DHT22;3579;48.956;9.154;2022-07-17T15:30:24;29.30;42.60
7077;DHT22;3579;48.956;9.154;2022-07-17T15:32:50;29.30;42.70
7077;DHT22;3579;48.956;9.154;2022-07-17T15:35:16;29.30;42.80
7077;DHT22;3579;48.956;9.154;2022-07-17T15:37:42;29.30;42.70
7077;DHT22;3579;48.956;9.154;2022-07-17T15:40:09;29.30;42.60
7077;DHT22;3579;48.956;9.154;2022-07-17T15:42:35;29.30;42.60
7077;DHT22;3579;48.956;9.154;2022-07-17T15:45:01;29.30;42.60
7077;DHT22;3579;48.956;9.154;2022-07-17T15:47:27;29.30;42.60
7077;DHT22;3579;48.956;9.154;2022-07-17T15:52:21;29.30;42.60
7077;DHT22;3579;48.956;9.154;2022-07-17T15:54:47;29.30;42.60
7077;DHT22;3579;48.956;9.154;2022-07-17T15:57:13;29.30;42.60
7077;DHT22;3579;48.956;9.154;2022-07-17T15:59:39;29.30;42.60
7077;DHT22;3579;48.956;9.154;2022-07-17T16:02:05;29.30;42.60
7077;DHT22;3579;48.956;9.154;2022-07-17T16:04:31;29.30;42.60
7077;DHT22;3579;48.956;9.154;2022-07-17T16:06:57;29.30;42.60
7077;DHT22;3579;48.956;9.154;2022-07-17T16:09:23;29.30;42.60
7077;DHT22;3579;48.956;9.154;2022-07-17T16:11:50;29.30;42.60
7077;DHT22;3579;48.956;9.154;2022-07-17T16:14:16;29.30;42.60
7077;DHT22;3579;48.956;9.154;2022-07-17T16:16:42;29.40;42.60
7077;DHT22;3579;48.956;9.154;2022-07-17T16:19:08;29.40;42.70
7077;DHT22;3579;48.956;9.154;2022-07-17T16:21:34;29.30;42.60
7077;DHT22;3579;48.956;9.154;2022-07-17T16:24:00;29.30;43.10
7077;DHT22;3579;48.956;9.154;2022-07-17T16:26:27;29.30;42.60
7077;DHT22;3579;48.956;9.154;2022-07-17T16:28:53;29.40;42.60